sensor_id;sensor_type;location;lat;lon;timestamp;temperature;humidity
69328;DHT22;56472;52.114;5.492;2023-05-18T00:01:48;20.90;41.90
69328;DHT22;56472;52.114;5.492;2023-05-18T00:04:15;20.90;41.80
69328;DHT22;56472;52.114;5.492;2023-05-18T00:06:42;20.90;41.80
69328;DHT22;56472;52.114;5.492;2023-05-18T00:09:09;20.90;41.90
69328;DHT22;56472;52.114;5.492;2023-05-18T00:11:36;20.90;41.80
69328;DHT22;56472;52.114;5.492;2023-05-18T00:14:06;20.90;41.90
69328;DHT22;56472;52.114;5.492;2023-05-18T00:16:34;20.90;41.90
69328;DHT22;56472;52.114;5.492;2023-05-18T00:19:01;20.90;41.90
69328;DHT22;56472;52.114;5.492;2023-05-18T00:21:28;20.90;41.80
69328;DHT22;56472;52.114;5.492;2023-05-18T00:23:56;20.80;41.80
69328;DHT22;56472;52.114;5.492;2023-05-18T00:26:24;20.90;41.80
69328;DHT22;56472;52.114;5.492;2023-05-18T00:28:52;20.80;41.80
69328;DHT22;56472;52.114;5.492;2023-05-18T00:31:19;20.80;41.80
69328;DHT22;56472;52.114;5.492;2023-05-18T00:33:46;20.80;41.80
69328;DHT22;56472;52.114;5.492;2023-05-18T00:36:13;20.80;41.80
69328;DHT22;56472;52.114;5.492;2023-05-18T00:38:40;20.80;41.90
69328;DHT22;56472;52.114;5.492;2023-05-18T00:41:07;20.80;41.90
69328;DHT22;56472;52.114;5.492;2023-05-18T00:43:34;20.80;41.90
69328;DHT22;56472;52.114;5.492;2023-05-18T00:46:01;20.80;41.80
69328;DHT22;56472;52.114;5.492;2023-05-18T00:48:28;20.80;41.80
69328;DHT22;56472;52.114;5.492;2023-05-18T00:50:55;20.80;41.80
69328;DHT22;56472;52.114;5.492;2023-05-18T00:53:22;20.70;41.90
69328;DHT22;56472;52.114;5.492;2023-05-18T00:55:49;20.70;41.90
69328;DHT22;56472;52.114;5.492;2023-05-18T00:58:16;20.70;41.80
69328;DHT22;56472;52.114;5.492;2023-05-18T01:00:43;20.70;41.90
69328;DHT22;56472;52.114;5.492;2023-05-18T01:03:10;20.70;41.90
69328;DHT22;56472;52.114;5.492;2023-05-18T01:05:41;20.70;41.80
69328;DHT22;56472;52.114;5.492;2023-05-18T01:08:08;20.70;41.90
69328;DHT22;56472;52.114;5.492;2023-05-18T01:10:36;20.70;41.90
69328;DHT22;56472;52.114;5.492;2023-05-18T01:13:14;20.70;41.90
69328;DHT22;56472;52.114;5.492;2023-05-18T01:15:46;20.60;41.90
69328;DHT22;56472;52.114;5.492;2023-05-18T01:18:30;20.60;41.90
69328;DHT22;56472;52.114;5.492;2023-05-18T01:24:08;20.60;41.90
69328;DHT22;56472;52.114;5.492;2023-05-18T01:26:45;20.60;41.90
69328;DHT22;56472;52.114;5.492;2023-05-18T01:29:14;20.60;41.90
69328;DHT22;56472;52.114;5.492;2023-05-18T01:31:44;20.60;42.00
69328;DHT22;56472;52.114;5.492;2023-05-18T01:34:11;20.50;41.90
69328;DHT22;56472;52.114;5.492;2023-05-18T01:36:38;20.50;42.00
69328;DHT22;56472;52.114;5.492;2023-05-18T01:39:05;20.50;41.90
69328;DHT22;56472;52.114;5.492;2023-05-18T01:41:43;20.50;41.90
69328;DHT22;56472;52.114;5.492;2023-05-18T01:44:18;20.50;41.90
69328;DHT22;56472;52.114;5.492;2023-05-18T01:49:32;20.50;41.90
69328;DHT22;56472;52.114;5.492;2023-05-18T01:52:03;20.50;41.90
69328;DHT22;56472;52.114;5.492;2023-05-18T01:54:32;20.50;41.90
69328;DHT22;56472;52.114;5.492;2023-05-18T01:57:06;20.50;42.00
69328;DHT22;56472;52.114;5.492;2023-05-18T01:59:34;20.50;42.00
69328;DHT22;56472;52.114;5.492;2023-05-18T02:02:02;20.50;42.00
69328;DHT22;56472;52.114;5.492;2023-05-18T02:04:30;20.40;41.90
69328;DHT22;56472;52.114;5.492;2023-05-18T02:06:57;20.40;42.00
69328;DHT22;56472;52.114;5.492;2023-05-18T02:09:24;20.40;41.90
69328;DHT22;56472;52.114;5.492;2023-05-18T02:11:51;20.40;41.90
69328;DHT22;56472;52.114;5.492;2023-05-18T02:14:18;20.40;41.90
69328;DHT22;56472;52.114;5.492;2023-05-18T02:16:45;20.40;41.90
69328;DHT22;56472;52.114;5.492;2023-05-18T02:19:13;20.40;41.90
69328;DHT22;56472;52.114;5.492;2023-05-18T02:21:40;20.40;42.00
69328;DHT22;56472;52.114;5.492;2023-05-18T02:24:09;20.40;41.90
69328;DHT22;56472;52.114;5.492;2023-05-18T02:26:37;20.40;41.90
69328;DHT22;56472;52.114;5.492;2023-05-18T02:29:05;20.40;41.90
69328;DHT22;56472;52.114;5.492;2023-05-18T02:31:32;20.40;41.90
69328;DHT22;56472;52.114;5.492;2023-05-18T02:34:00;20.40;42.00
69328;DHT22;56472;52.114;5.492;2023-05-18T02:36:27;20.40;41.90
69328;DHT22;56472;52.114;5.492;2023-05-18T02:39:03;20.30;41.90
69328;DHT22;56472;52.114;5.492;2023-05-18T02:41:31;20.30;41.90
69328;DHT22;56472;52.114;5.492;2023-05-18T02:43:58;20.30;41.90
69328;DHT22;56472;52.114;5.492;2023-05-18T02:46:25;20.30;41.90
69328;DHT22;56472;52.114;5.492;2023-05-18T02:48:52;20.30;41.90
69328;DHT22;56472;52.114;5.492;2023-05-18T02:51:20;20.30;41.90
69328;DHT22;56472;52.114;5.492;2023-05-18T02:53:50;20.30;42.00
69328;DHT22;56472;52.114;5.492;2023-05-18T02:56:18;20.30;41.90
69328;DHT22;56472;52.114;5.492;2023-05-18T02:58:53;20.30;41.90
69328;DHT22;56472;52.114;5.492;2023-05-18T03:01:34;20.30;41.90
69328;DHT22;56472;52.114;5.492;2023-05-18T03:04:03;20.30;42.00
69328;DHT22;56472;52.114;5.492;2023-05-18T03:06:30;20.30;42.00
69328;DHT22;56472;52.114;5.492;2023-05-18T03:08:57;20.30;42.00
69328;DHT22;56472;52.114;5.492;2023-05-18T03:11:33;20.20;41.90
69328;DHT22;56472;52.114;5.492;2023-05-18T03:14:00;20.20;41.90
69328;DHT22;56472;52.114;5.492;2023-05-18T03:16:28;20.20;41.90
69328;DHT22;56472;52.114;5.492;2023-05-18T03:18:55;20.20;41.90
69328;DHT22;56472;52.114;5.492;2023-05-18T03:21:28;20.20;41.90
69328;DHT22;56472;52.114;5.492;2023-05-18T03:24:04;20.20;41.90
69328;DHT22;56472;52.114;5.492;2023-05-18T03:26:34;20.20;41.90
69328;DHT22;56472;52.114;5.492;2023-05-18T03:29:02;20.20;41.90
69328;DHT22;56472;52.114;5.492;2023-05-18T03:31:29;20.20;41.90
69328;DHT22;56472;52.114;5.492;2023-05-18T03:33:58;20.20;41.90
69328;DHT22;56472;52.114;5.492;2023-05-18T03:36:25;20.20;41.90
69328;DHT22;56472;52.114;5.492;2023-05-18T03:38:54;20.20;41.90
69328;DHT22;56472;52.114;5.492;2023-05-18T03:41:21;20.20;41.90
69328;DHT22;56472;52.114;5.492;2023-05-18T03:43:48;20.20;41.90
69328;DHT22;56472;52.114;5.492;2023-05-18T03:46:16;20.20;41.90
69328;DHT22;56472;52.114;5.492;2023-05-18T03:48:43;20.10;41.80
69328;DHT22;56472;52.114;5.492;2023-05-18T03:51:11;20.10;41.90
69328;DHT22;56472;52.114;5.492;2023-05-18T03:53:38;20.10;41.90
69328;DHT22;56472;52.114;5.492;2023-05-18T03:56:05;20.10;41.90
69328;DHT22;56472;52.114;5.492;2023-05-18T03:58:32;20.10;41.80
69328;DHT22;56472;52.114;5.492;2023-05-18T04:01:00;20.10;41.80
69328;DHT22;56472;52.114;5.492;2023-05-18T04:03:27;20.10;41.80
69328;DHT22;56472;52.114;5.492;2023-05-18T04:05:56;20.10;41.80
69328;DHT22;56472;52.114;5.492;2023-05-18T04:08:23;20.10;41.90
69328;DHT22;56472;52.114;5.492;2023-05-18T04:10:51;20.10;41.90
69328;DHT22;56472;52.114;5.492;2023-05-18T04:13:18;20.10;41.80
69328;DHT22;56472;52.114;5.492;2023-05-18T04:15:45;20.10;41.80
69328;DHT22;56472;52.114;5.492;2023-05-18T04:18:13;20.10;41.80
69328;DHT22;56472;52.114;5.492;2023-05-18T04:20:41;20.10;41.80
69328;DHT22;56472;52.114;5.492;2023-05-18T04:23:08;20.10;41.80
69328;DHT22;56472;52.114;5.492;2023-05-18T04:25:37;20.10;41.90
69328;DHT22;56472;52.114;5.492;2023-05-18T04:28:05;20.00;41.70
69328;DHT22;56472;52.114;5.492;2023-05-18T04:30:34;20.00;41.80
69328;DHT22;56472;52.114;5.492;2023-05-18T04:33:01;20.10;41.90
69328;DHT22;56472;52.114;5.492;2023-05-18T04:35:30;20.00;41.80
69328;DHT22;56472;52.114;5.492;2023-05-18T04:37:58;20.00;41.80
69328;DHT22;56472;52.114;5.492;2023-05-18T04:40:25;20.00;41.80
69328;DHT22;56472;52.114;5.492;2023-05-18T04:42:52;20.00;41.80
69328;DHT22;56472;52.114;5.492;2023-05-18T04:45:25;20.00;41.90
69328;DHT22;56472;52.114;5.492;2023-05-18T04:47:54;20.00;41.80
69328;DHT22;56472;52.114;5.492;2023-05-18T04:50:21;20.00;41.80
69328;DHT22;56472;52.114;5.492;2023-05-18T04:52:50;20.00;41.80
69328;DHT22;56472;52.114;5.492;2023-05-18T04:55:21;20.00;41.80
69328;DHT22;56472;52.114;5.492;2023-05-18T04:57:55;20.10;41.90
69328;DHT22;56472;52.114;5.492;2023-05-18T05:00:24;20.00;41.80
69328;DHT22;56472;52.114;5.492;2023-05-18T05:02:52;20.10;41.90
69328;DHT22;56472;52.114;5.492;2023-05-18T05:05:21;20.10;41.90
69328;DHT22;56472;52.114;5.492;2023-05-18T05:07:52;20.10;41.90
69328;DHT22;56472;52.114;5.492;2023-05-18T05:10:20;20.10;41.90
69328;DHT22;56472;52.114;5.492;2023-05-18T05:12:50;20.10;41.90
69328;DHT22;56472;52.114;5.492;2023-05-18T05:15:18;20.10;42.00
69328;DHT22;56472;52.114;5.492;2023-05-18T05:17:47;20.10;42.00
69328;DHT22;56472;52.114;5.492;2023-05-18T05:20:15;20.10;42.00
69328;DHT22;56472;52.114;5.492;2023-05-18T05:22:43;20.10;42.00
69328;DHT22;56472;52.114;5.492;2023-05-18T05:25:12;20.20;42.00
69328;DHT22;56472;52.114;5.492;2023-05-18T05:27:39;20.20;42.00
69328;DHT22;56472;52.114;5.492;2023-05-18T05:30:07;20.20;42.00
69328;DHT22;56472;52.114;5.492;2023-05-18T05:32:35;20.20;42.10
69328;DHT22;56472;52.114;5.492;2023-05-18T05:35:04;20.20;42.10
69328;DHT22;56472;52.114;5.492;2023-05-18T05:37:32;20.20;42.00
69328;DHT22;56472;52.114;5.492;2023-05-18T05:39:59;20.30;42.00
69328;DHT22;56472;52.114;5.492;2023-05-18T05:42:27;20.30;42.00
69328;DHT22;56472;52.114;5.492;2023-05-18T05:44:55;20.30;41.90
69328;DHT22;56472;52.114;5.492;2023-05-18T05:47:24;20.40;41.90
69328;DHT22;56472;52.114;5.492;2023-05-18T05:49:52;20.40;41.80
69328;DHT22;56472;52.114;5.492;2023-05-18T05:52:19;20.40;41.80
69328;DHT22;56472;52.114;5.492;2023-05-18T05:54:46;20.40;41.60
69328;DHT22;56472;52.114;5.492;2023-05-18T05:57:14;20.50;41.60
69328;DHT22;56472;52.114;5.492;2023-05-18T05:59:41;20.50;41.50
69328;DHT22;56472;52.114;5.492;2023-05-18T06:02:08;20.50;41.50
69328;DHT22;56472;52.114;5.492;2023-05-18T06:04:35;20.50;41.40
69328;DHT22;56472;52.114;5.492;2023-05-18T06:07:02;20.60;41.40
69328;DHT22;56472;52.114;5.492;2023-05-18T06:09:29;20.60;41.40
69328;DHT22;56472;52.114;5.492;2023-05-18T06:11:56;20.60;41.30
69328;DHT22;56472;52.114;5.492;2023-05-18T06:14:25;20.70;41.40
69328;DHT22;56472;52.114;5.492;2023-05-18T06:16:54;20.70;41.40
69328;DHT22;56472;52.114;5.492;2023-05-18T06:19:21;20.70;41.30
69328;DHT22;56472;52.114;5.492;2023-05-18T06:21:50;20.70;41.20
69328;DHT22;56472;52.114;5.492;2023-05-18T06:24:17;20.70;41.20
69328;DHT22;56472;52.114;5.492;2023-05-18T06:27:01;20.80;41.20
69328;DHT22;56472;52.114;5.492;2023-05-18T06:29:48;20.80;41.20
69328;DHT22;56472;52.114;5.492;2023-05-18T06:32:33;20.80;41.20
69328;DHT22;56472;52.114;5.492;2023-05-18T06:35:00;20.80;41.20
69328;DHT22;56472;52.114;5.492;2023-05-18T06:37:28;20.90;41.20
69328;DHT22;56472;52.114;5.492;2023-05-18T06:39:57;20.90;41.10
69328;DHT22;56472;52.114;5.492;2023-05-18T06:42:24;20.90;41.20
69328;DHT22;56472;52.114;5.492;2023-05-18T06:45:01;20.90;41.10
69328;DHT22;56472;52.114;5.492;2023-05-18T06:47:46;21.00;41.20
69328;DHT22;56472;52.114;5.492;2023-05-18T06:50:14;21.00;41.30
69328;DHT22;56472;52.114;5.492;2023-05-18T06:52:42;21.00;41.30
69328;DHT22;56472;52.114;5.492;2023-05-18T06:55:10;21.10;41.30
69328;DHT22;56472;52.114;5.492;2023-05-18T06:57:37;21.10;41.30
69328;DHT22;56472;52.114;5.492;2023-05-18T07:00:04;21.10;41.40
69328;DHT22;56472;52.114;5.492;2023-05-18T07:02:33;21.20;41.60
69328;DHT22;56472;52.114;5.492;2023-05-18T07:05:00;21.20;42.70
69328;DHT22;56472;52.114;5.492;2023-05-18T07:07:31;21.20;41.90
69328;DHT22;56472;52.114;5.492;2023-05-18T07:09:58;21.30;42.10
69328;DHT22;56472;52.114;5.492;2023-05-18T07:12:25;21.30;42.30
69328;DHT22;56472;52.114;5.492;2023-05-18T07:14:53;21.30;42.40
69328;DHT22;56472;52.114;5.492;2023-05-18T07:17:19;21.30;42.30
69328;DHT22;56472;52.114;5.492;2023-05-18T07:19:47;21.40;42.20
69328;DHT22;56472;52.114;5.492;2023-05-18T07:22:13;21.40;42.10
69328;DHT22;56472;52.114;5.492;2023-05-18T07:24:40;21.40;42.10
69328;DHT22;56472;52.114;5.492;2023-05-18T07:27:07;21.50;42.10
69328;DHT22;56472;52.114;5.492;2023-05-18T07:29:34;21.50;42.10
69328;DHT22;56472;52.114;5.492;2023-05-18T07:32:01;21.50;42.00
69328;DHT22;56472;52.114;5.492;2023-05-18T07:34:28;21.60;42.00
69328;DHT22;56472;52.114;5.492;2023-05-18T07:36:55;21.60;41.90
69328;DHT22;56472;52.114;5.492;2023-05-18T07:39:23;21.70;42.00
69328;DHT22;56472;52.114;5.492;2023-05-18T07:41:55;21.70;42.00
69328;DHT22;56472;52.114;5.492;2023-05-18T07:44:22;21.70;41.90
69328;DHT22;56472;52.114;5.492;2023-05-18T07:46:50;21.70;41.80
69328;DHT22;56472;52.114;5.492;2023-05-18T07:49:17;21.80;41.80
69328;DHT22;56472;52.114;5.492;2023-05-18T07:51:44;21.80;41.70
69328;DHT22;56472;52.114;5.492;2023-05-18T07:54:11;21.80;41.60
69328;DHT22;56472;52.114;5.492;2023-05-18T07:56:38;21.90;41.90
69328;DHT22;56472;52.114;5.492;2023-05-18T07:59:07;21.90;41.70
69328;DHT22;56472;52.114;5.492;2023-05-18T08:01:34;21.90;41.70
69328;DHT22;56472;52.114;5.492;2023-05-18T08:04:03;21.90;41.70
69328;DHT22;56472;52.114;5.492;2023-05-18T08:06:31;21.90;41.80
69328;DHT22;56472;52.114;5.492;2023-05-18T08:08:58;22.00;41.80
69328;DHT22;56472;52.114;5.492;2023-05-18T08:11:25;21.90;41.60
69328;DHT22;56472;52.114;5.492;2023-05-18T08:13:52;22.00;41.70
69328;DHT22;56472;52.114;5.492;2023-05-18T08:16:18;22.00;41.80
69328;DHT22;56472;52.114;5.492;2023-05-18T08:18:45;22.00;41.80
69328;DHT22;56472;52.114;5.492;2023-05-18T08:21:12;22.00;41.80
69328;DHT22;56472;52.114;5.492;2023-05-18T08:23:39;22.00;41.70
69328;DHT22;56472;52.114;5.492;2023-05-18T08:26:07;22.00;41.60
69328;DHT22;56472;52.114;5.492;2023-05-18T08:28:36;22.00;41.70
69328;DHT22;56472;52.114;5.492;2023-05-18T08:31:03;22.00;41.70
69328;DHT22;56472;52.114;5.492;2023-05-18T08:33:30;22.10;41.60
69328;DHT22;56472;52.114;5.492;2023-05-18T08:35:58;22.00;42.50
69328;DHT22;56472;52.114;5.492;2023-05-18T08:38:25;22.10;41.60
69328;DHT22;56472;52.114;5.492;2023-05-18T08:41:47;22.10;41.50
69328;DHT22;56472;52.114;5.492;2023-05-18T08:44:02;22.10;41.50
69328;DHT22;56472;52.114;5.492;2023-05-18T08:46:34;22.10;41.40
69328;DHT22;56472;52.114;5.492;2023-05-18T08:49:04;22.10;41.40
69328;DHT22;56472;52.114;5.492;2023-05-18T08:51:34;22.10;41.40
69328;DHT22;56472;52.114;5.492;2023-05-18T08:54:02;22.10;41.50
69328;DHT22;56472;52.114;5.492;2023-05-18T08:56:32;22.10;41.50
69328;DHT22;56472;52.114;5.492;2023-05-18T08:59:02;22.20;41.50
69328;DHT22;56472;52.114;5.492;2023-05-18T09:01:30;22.20;41.50
69328;DHT22;56472;52.114;5.492;2023-05-18T09:03:58;22.20;41.40
69328;DHT22;56472;52.114;5.492;2023-05-18T09:06:27;22.20;41.30
69328;DHT22;56472;52.114;5.492;2023-05-18T09:08:55;22.20;41.20
69328;DHT22;56472;52.114;5.492;2023-05-18T09:11:25;22.20;41.20
69328;DHT22;56472;52.114;5.492;2023-05-18T09:13:53;22.30;41.20
69328;DHT22;56472;52.114;5.492;2023-05-18T09:16:20;22.30;41.20
69328;DHT22;56472;52.114;5.492;2023-05-18T09:18:48;22.30;41.10
69328;DHT22;56472;52.114;5.492;2023-05-18T09:21:15;22.30;41.10
69328;DHT22;56472;52.114;5.492;2023-05-18T09:23:43;22.30;41.10
69328;DHT22;56472;52.114;5.492;2023-05-18T09:26:10;22.30;41.00
69328;DHT22;56472;52.114;5.492;2023-05-18T09:28:42;22.40;41.00
69328;DHT22;56472;52.114;5.492;2023-05-18T09:31:16;22.40;40.90
69328;DHT22;56472;52.114;5.492;2023-05-18T09:33:45;22.40;40.90
69328;DHT22;56472;52.114;5.492;2023-05-18T09:36:13;22.40;40.90
69328;DHT22;56472;52.114;5.492;2023-05-18T09:38:44;22.50;40.90
69328;DHT22;56472;52.114;5.492;2023-05-18T09:41:16;22.50;40.90
69328;DHT22;56472;52.114;5.492;2023-05-18T09:43:44;22.50;40.90
69328;DHT22;56472;52.114;5.492;2023-05-18T09:46:12;22.50;40.90
69328;DHT22;56472;52.114;5.492;2023-05-18T09:48:49;22.50;40.80
69328;DHT22;56472;52.114;5.492;2023-05-18T09:51:17;22.60;40.80
69328;DHT22;56472;52.114;5.492;2023-05-18T09:53:54;22.50;40.70
69328;DHT22;56472;52.114;5.492;2023-05-18T09:56:26;22.60;40.70
69328;DHT22;56472;52.114;5.492;2023-05-18T09:58:53;22.60;40.80
69328;DHT22;56472;52.114;5.492;2023-05-18T10:01:20;22.60;40.90
69328;DHT22;56472;52.114;5.492;2023-05-18T10:03:47;22.60;40.90
69328;DHT22;56472;52.114;5.492;2023-05-18T10:06:15;22.60;40.90
69328;DHT22;56472;52.114;5.492;2023-05-18T10:08:47;22.70;40.90
69328;DHT22;56472;52.114;5.492;2023-05-18T10:11:17;22.70;40.90
69328;DHT22;56472;52.114;5.492;2023-05-18T10:13:45;22.70;40.90
69328;DHT22;56472;52.114;5.492;2023-05-18T10:16:14;22.70;40.80
69328;DHT22;56472;52.114;5.492;2023-05-18T10:18:42;22.70;40.70
69328;DHT22;56472;52.114;5.492;2023-05-18T10:21:10;22.70;40.60
69328;DHT22;56472;52.114;5.492;2023-05-18T10:23:39;22.70;40.50
69328;DHT22;56472;52.114;5.492;2023-05-18T10:26:07;22.70;40.40
69328;DHT22;56472;52.114;5.492;2023-05-18T10:28:47;22.70;40.50
69328;DHT22;56472;52.114;5.492;2023-05-18T10:31:15;22.80;40.50
69328;DHT22;56472;52.114;5.492;2023-05-18T10:33:43;22.80;40.50
69328;DHT22;56472;52.114;5.492;2023-05-18T10:36:10;22.80;40.40
69328;DHT22;56472;52.114;5.492;2023-05-18T10:38:39;22.80;40.30
69328;DHT22;56472;52.114;5.492;2023-05-18T10:41:10;22.80;40.30
69328;DHT22;56472;52.114;5.492;2023-05-18T10:43:39;22.80;40.30
69328;DHT22;56472;52.114;5.492;2023-05-18T10:46:07;22.80;40.40
69328;DHT22;56472;52.114;5.492;2023-05-18T10:48:38;22.80;40.40
69328;DHT22;56472;52.114;5.492;2023-05-18T10:51:08;22.80;40.20
69328;DHT22;56472;52.114;5.492;2023-05-18T10:53:35;22.80;40.30
69328;DHT22;56472;52.114;5.492;2023-05-18T10:56:03;22.80;40.20
69328;DHT22;56472;52.114;5.492;2023-05-18T10:58:30;22.80;40.20
69328;DHT22;56472;52.114;5.492;2023-05-18T11:01:00;22.80;40.20
69328;DHT22;56472;52.114;5.492;2023-05-18T11:03:27;22.80;40.20
69328;DHT22;56472;52.114;5.492;2023-05-18T11:08:42;22.80;40.10
69328;DHT22;56472;52.114;5.492;2023-05-18T11:11:10;22.80;40.10
69328;DHT22;56472;52.114;5.492;2023-05-18T11:13:43;22.80;40.20
69328;DHT22;56472;52.114;5.492;2023-05-18T11:16:10;22.80;40.20
69328;DHT22;56472;52.114;5.492;2023-05-18T11:18:43;22.80;40.30
69328;DHT22;56472;52.114;5.492;2023-05-18T11:21:30;22.80;40.20
69328;DHT22;56472;52.114;5.492;2023-05-18T11:24:29;22.80;40.20
69328;DHT22;56472;52.114;5.492;2023-05-18T11:26:58;22.80;40.20
69328;DHT22;56472;52.114;5.492;2023-05-18T11:29:40;22.80;40.20
69328;DHT22;56472;52.114;5.492;2023-05-18T11:32:27;22.80;40.20
69328;DHT22;56472;52.114;5.492;2023-05-18T11:34:57;22.80;40.30
69328;DHT22;56472;52.114;5.492;2023-05-18T11:42:36;22.90;40.40
69328;DHT22;56472;52.114;5.492;2023-05-18T11:45:09;22.90;40.40
69328;DHT22;56472;52.114;5.492;2023-05-18T11:47:37;22.90;40.30
69328;DHT22;56472;52.114;5.492;2023-05-18T11:50:09;22.90;40.20
69328;DHT22;56472;52.114;5.492;2023-05-18T11:52:48;22.90;40.20
69328;DHT22;56472;52.114;5.492;2023-05-18T11:55:19;22.90;40.20
69328;DHT22;56472;52.114;5.492;2023-05-18T11:57:48;22.90;40.30
69328;DHT22;56472;52.114;5.492;2023-05-18T12:00:18;22.90;40.40
69328;DHT22;56472;52.114;5.492;2023-05-18T12:02:47;22.90;40.40
69328;DHT22;56472;52.114;5.492;2023-05-18T12:05:14;23.00;40.50
69328;DHT22;56472;52.114;5.492;2023-05-18T12:07:42;23.00;40.50
69328;DHT22;56472;52.114;5.492;2023-05-18T12:10:12;23.00;40.60
69328;DHT22;56472;52.114;5.492;2023-05-18T12:12:40;23.00;40.50
69328;DHT22;56472;52.114;5.492;2023-05-18T12:15:09;23.00;40.50
69328;DHT22;56472;52.114;5.492;2023-05-18T12:20:14;23.10;40.40
69328;DHT22;56472;52.114;5.492;2023-05-18T12:22:46;23.10;40.40
69328;DHT22;56472;52.114;5.492;2023-05-18T12:25:16;23.10;40.40
69328;DHT22;56472;52.114;5.492;2023-05-18T12:27:44;23.10;40.30
69328;DHT22;56472;52.114;5.492;2023-05-18T12:30:31;23.10;40.30
69328;DHT22;56472;52.114;5.492;2023-05-18T12:33:02;23.10;40.20
69328;DHT22;56472;52.114;5.492;2023-05-18T12:35:30;23.10;40.30
69328;DHT22;56472;52.114;5.492;2023-05-18T12:37:59;23.20;40.30
69328;DHT22;56472;52.114;5.492;2023-05-18T12:40:33;23.20;40.20
69328;DHT22;56472;52.114;5.492;2023-05-18T12:43:03;23.20;40.20
69328;DHT22;56472;52.114;5.492;2023-05-18T12:45:31;23.20;40.10
69328;DHT22;56472;52.114;5.492;2023-05-18T12:48:06;23.20;40.00
69328;DHT22;56472;52.114;5.492;2023-05-18T12:50:34;23.20;39.70
69328;DHT22;56472;52.114;5.492;2023-05-18T12:53:02;23.20;39.60
69328;DHT22;56472;52.114;5.492;2023-05-18T12:55:30;23.30;39.60
69328;DHT22;56472;52.114;5.492;2023-05-18T12:58:05;23.20;39.50
69328;DHT22;56472;52.114;5.492;2023-05-18T13:00:33;23.20;39.30
69328;DHT22;56472;52.114;5.492;2023-05-18T13:03:11;23.30;39.30
69328;DHT22;56472;52.114;5.492;2023-05-18T13:05:43;23.20;39.10
69328;DHT22;56472;52.114;5.492;2023-05-18T13:08:15;23.20;39.00
69328;DHT22;56472;52.114;5.492;2023-05-18T13:10:48;23.20;38.80
69328;DHT22;56472;52.114;5.492;2023-05-18T13:13:35;23.20;38.80
69328;DHT22;56472;52.114;5.492;2023-05-18T13:16:02;23.20;38.60
69328;DHT22;56472;52.114;5.492;2023-05-18T13:18:29;23.20;38.60
69328;DHT22;56472;52.114;5.492;2023-05-18T13:20:56;23.20;38.40
69328;DHT22;56472;52.114;5.492;2023-05-18T13:23:27;23.30;38.40
69328;DHT22;56472;52.114;5.492;2023-05-18T13:25:54;23.30;38.30
69328;DHT22;56472;52.114;5.492;2023-05-18T13:28:25;23.30;38.30
69328;DHT22;56472;52.114;5.492;2023-05-18T13:30:52;23.30;38.20
69328;DHT22;56472;52.114;5.492;2023-05-18T13:33:19;23.30;38.10
69328;DHT22;56472;52.114;5.492;2023-05-18T13:35:47;23.30;38.00
69328;DHT22;56472;52.114;5.492;2023-05-18T13:38:15;23.30;38.00
69328;DHT22;56472;52.114;5.492;2023-05-18T13:40:42;23.30;37.80
69328;DHT22;56472;52.114;5.492;2023-05-18T13:43:09;23.40;37.80
69328;DHT22;56472;52.114;5.492;2023-05-18T13:45:39;23.30;37.70
69328;DHT22;56472;52.114;5.492;2023-05-18T13:48:06;23.40;37.70
69328;DHT22;56472;52.114;5.492;2023-05-18T13:50:37;23.40;37.60
69328;DHT22;56472;52.114;5.492;2023-05-18T13:53:04;23.40;37.50
69328;DHT22;56472;52.114;5.492;2023-05-18T13:55:32;23.40;37.50
69328;DHT22;56472;52.114;5.492;2023-05-18T13:57:59;23.40;37.50
69328;DHT22;56472;52.114;5.492;2023-05-18T14:00:26;23.40;37.40
69328;DHT22;56472;52.114;5.492;2023-05-18T14:02:53;23.40;37.30
69328;DHT22;56472;52.114;5.492;2023-05-18T14:05:20;23.50;37.30
69328;DHT22;56472;52.114;5.492;2023-05-18T14:07:47;23.50;37.30
69328;DHT22;56472;52.114;5.492;2023-05-18T14:10:15;23.50;37.30
69328;DHT22;56472;52.114;5.492;2023-05-18T14:12:42;23.50;37.40
69328;DHT22;56472;52.114;5.492;2023-05-18T14:15:12;23.50;37.40
69328;DHT22;56472;52.114;5.492;2023-05-18T14:17:41;23.50;37.40
69328;DHT22;56472;52.114;5.492;2023-05-18T14:20:09;23.50;37.30
69328;DHT22;56472;52.114;5.492;2023-05-18T14:22:36;23.50;37.30
69328;DHT22;56472;52.114;5.492;2023-05-18T14:25:03;23.50;37.20
69328;DHT22;56472;52.114;5.492;2023-05-18T14:27:30;23.50;37.10
69328;DHT22;56472;52.114;5.492;2023-05-18T14:29:57;23.50;37.10
69328;DHT22;56472;52.114;5.492;2023-05-18T14:32:24;23.60;37.10
69328;DHT22;56472;52.114;5.492;2023-05-18T14:34:51;23.60;37.00
69328;DHT22;56472;52.114;5.492;2023-05-18T14:37:21;23.60;36.80
69328;DHT22;56472;52.114;5.492;2023-05-18T14:39:48;23.60;36.70
69328;DHT22;56472;52.114;5.492;2023-05-18T14:42:15;23.60;36.60
69328;DHT22;56472;52.114;5.492;2023-05-18T14:44:42;23.70;36.60
69328;DHT22;56472;52.114;5.492;2023-05-18T14:47:09;23.70;36.50
69328;DHT22;56472;52.114;5.492;2023-05-18T14:49:36;23.70;36.50
69328;DHT22;56472;52.114;5.492;2023-05-18T14:52:04;23.80;36.50
69328;DHT22;56472;52.114;5.492;2023-05-18T14:54:31;23.80;36.50
69328;DHT22;56472;52.114;5.492;2023-05-18T14:56:58;23.80;36.50
69328;DHT22;56472;52.114;5.492;2023-05-18T14:59:25;23.80;36.60
69328;DHT22;56472;52.114;5.492;2023-05-18T15:01:52;23.80;36.70
69328;DHT22;56472;52.114;5.492;2023-05-18T15:04:19;23.90;36.70
69328;DHT22;56472;52.114;5.492;2023-05-18T15:06:47;23.90;36.70
69328;DHT22;56472;52.114;5.492;2023-05-18T15:09:15;23.90;36.80
69328;DHT22;56472;52.114;5.492;2023-05-18T15:11:43;24.00;37.00
69328;DHT22;56472;52.114;5.492;2023-05-18T15:14:10;24.00;37.10
69328;DHT22;56472;52.114;5.492;2023-05-18T15:16:37;24.10;37.20
69328;DHT22;56472;52.114;5.492;2023-05-18T15:19:04;24.10;37.10
69328;DHT22;56472;52.114;5.492;2023-05-18T15:21:32;24.10;37.10
69328;DHT22;56472;52.114;5.492;2023-05-18T15:23:59;24.10;37.10
69328;DHT22;56472;52.114;5.492;2023-05-18T15:26:26;24.20;37.10
69328;DHT22;56472;52.114;5.492;2023-05-18T15:28:53;24.20;37.10
69328;DHT22;56472;52.114;5.492;2023-05-18T15:31:20;24.20;37.10
69328;DHT22;56472;52.114;5.492;2023-05-18T15:33:47;24.30;37.20
69328;DHT22;56472;52.114;5.492;2023-05-18T15:36:14;24.30;37.20
69328;DHT22;56472;52.114;5.492;2023-05-18T15:38:41;24.40;37.10
69328;DHT22;56472;52.114;5.492;2023-05-18T15:41:08;24.40;37.10
69328;DHT22;56472;52.114;5.492;2023-05-18T15:43:35;24.40;37.10
69328;DHT22;56472;52.114;5.492;2023-05-18T15:46:03;24.40;37.00
69328;DHT22;56472;52.114;5.492;2023-05-18T15:48:30;24.40;36.90
69328;DHT22;56472;52.114;5.492;2023-05-18T15:50:57;24.40;36.80
69328;DHT22;56472;52.114;5.492;2023-05-18T15:53:24;24.40;36.80
69328;DHT22;56472;52.114;5.492;2023-05-18T15:55:51;24.40;36.80
69328;DHT22;56472;52.114;5.492;2023-05-18T15:58:24;24.40;36.90